Latest Weather Observations for Mandurah

IDW60901

Issued at 4:55 pm WST Friday 25 July 2014 (issued every 10 minutes, with the page automatically refreshed every 10 minutes)

About weather observations | Map of Perth area stations | Latest observations for Perth area | Other Formats
Station Details ID: 009977 Name: MANDURAH Lat: -32.52 Lon: 115.71 Height: 3.0 m
Data from the previous 72 hours. | See also: Recent months at Mandurah
Date/Time
WST
Tmp

°C
App
Tmp
°C
Dew
Point
°C
Rel
Hum
%
Delta-T

°C
Wind Press
QNH
hPa
Press
MSL
hPa
Rain
since
9 am
mm
Dir
 
Spd
km/h
Gust
km/h
Spd
kts
Gust
kts
25/04:30pm 16.9 13.4 16.6 98 0.2 N 30 39 16 21 1016.6 - 0.2
25/04:00pm 16.6 12.2 16.6 100 0.0 N 35 48 19 26 1016.9 1016.9 0.2
25/03:30pm 17.1 12.5 16.1 94 0.6 N 35 43 19 23 1016.7 - 0.0
25/03:00pm 17.7 12.9 15.7 88 1.2 N 35 43 19 23 1016.8 1016.8 0.0
25/02:30pm 18.4 13.6 12.8 70 3.1 NNW 30 39 16 21 1016.8 - 0.0
25/02:00pm 19.0 13.7 13.0 68 3.4 NW 33 41 18 22 1016.9 1016.9 0.0
25/01:30pm 18.3 12.8 12.3 68 3.3 NW 33 41 18 22 1017.1 - 0.0
25/01:00pm 18.1 13.1 13.4 74 2.7 NW 32 39 17 21 1017.6 1017.6 0.0
25/12:39pm 17.6 10.4 13.1 75 2.5 NNW 43 67 23 36 1017.8 - 0.0
25/12:30pm 18.1 14.1 14.0 77 2.3 NW 28 48 15 26 1018.0 - 0.0
25/12:00pm 18.6 14.4 12.4 67 3.4 NW 26 30 14 16 1018.4 1018.4 0.0
25/11:46am 17.9 10.1 11.2 65 3.6 NNW 43 63 23 34 1018.8 - 0.0
25/11:41am 17.5 9.6 11.3 67 3.4 NNW 44 63 24 34 1018.8 - 0.0
25/11:30am 18.0 12.6 12.2 69 3.2 NNW 32 39 17 21 1018.9 - 0.0
25/11:00am 16.5 13.0 16.5 100 0.0 N 30 37 16 20 1019.2 1019.2 0.0
25/10:30am 16.2 12.1 16.0 99 0.1 N 32 43 17 23 1019.2 - 0.0
25/10:00am 15.6 12.5 15.6 100 0.0 N 26 32 14 17 1019.4 1019.4 0.0
25/09:30am 15.3 11.3 15.3 100 0.0 N 30 39 16 21 1019.3 - 0.0
25/09:00am 14.9 11.6 14.9 100 0.0 N 26 30 14 16 1019.2 1019.2 6.0
25/08:30am 14.5 11.4 14.5 100 0.0 N 24 32 13 17 1019.4 - 6.0
25/08:00am 14.3 10.7 14.3 100 0.0 N 26 32 14 17 1019.1 1019.1 5.8
25/07:30am 14.3 11.5 14.3 100 0.0 N 22 26 12 14 1019.1 - 5.2
25/07:00am 14.4 12.2 14.4 100 0.0 NNE 19 26 10 14 1019.2 1019.2 5.2
25/06:30am 14.9 13.3 14.9 100 0.0 NNE 17 22 9 12 1019.0 - 5.2
25/06:00am 15.7 14.0 15.7 100 0.0 NW 19 20 10 11 1018.6 1018.6 5.2
25/05:30am 15.5 12.8 15.5 100 0.0 N 24 28 13 15 1018.6 - 5.0
25/05:00am 14.3 11.5 14.3 100 0.0 N 22 26 12 14 1018.7 1018.7 5.0
25/04:30am 14.1 11.6 14.1 100 0.0 N 20 26 11 14 1019.0 - 5.0
25/04:00am 14.2 11.7 14.2 100 0.0 N 20 26 11 14 1019.3 1019.3 5.0
25/03:30am 14.5 11.8 14.5 100 0.0 N 22 24 12 13 1019.4 - 5.0
25/03:00am 14.5 12.1 14.5 100 0.0 N 20 26 11 14 1019.5 1019.5 5.0
25/02:30am 14.4 11.3 14.4 100 0.0 N 24 28 13 15 1019.5 - 5.0
25/02:00am 14.4 12.2 14.4 100 0.0 NNE 19 22 10 12 1019.7 1019.7 5.0
25/01:30am 14.4 13.0 14.4 100 0.0 NNE 15 19 8 10 1019.8 - 5.0
25/01:00am 14.8 12.7 14.8 100 0.0 NNE 19 22 10 12 1019.9 1019.9 5.0
25/12:30am 14.1 13.3 14.1 100 0.0 NE 11 17 6 9 1020.1 - 5.0
25/12:00am 14.4 13.7 14.4 100 0.0 NNE 11 17 6 9 1020.2 1020.2 4.8
 
Date/Time
WST
Tmp

°C
App
Tmp
°C
Dew
Point
°C
Rel
Hum
%
Delta-T

°C
Wind Press
QNH
hPa
Press
MSL
hPa
Rain
since
9 am
mm
Dir
 
Spd
km/h
Gust
km/h
Spd
kts
Gust
kts
24/11:30pm 13.8 13.7 13.8 100 0.0 NE 7 11 4 6 1020.5 - 4.8
24/11:00pm 15.4 15.1 15.4 100 0.0 N 11 20 6 11 1020.7 1020.7 4.6
24/10:30pm 14.4 14.0 14.2 99 0.1 NNE 9 13 5 7 1020.8 - 4.0
24/10:00pm 14.4 13.7 14.2 99 0.1 NNE 11 15 6 8 1020.8 1020.8 3.8
24/09:30pm 14.5 13.8 14.3 99 0.1 NNE 11 15 6 8 1020.6 - 3.8
24/09:00pm 14.6 13.9 14.3 98 0.2 NNE 11 13 6 7 1020.8 1020.8 3.8
24/08:30pm 14.7 13.7 14.5 99 0.1 NNE 13 15 7 8 1021.0 - 3.8
24/08:00pm 15.0 14.9 15.0 100 0.0 NE 9 13 5 7 1021.0 1021.0 3.8
24/07:30pm 14.8 15.6 14.8 100 0.0 NE 4 7 2 4 1021.1 - 3.8
24/07:00pm 14.9 15.4 14.9 100 0.0 N 6 7 3 4 1020.9 1020.9 3.8
24/06:30pm 14.8 14.9 13.8 94 0.6 W 6 11 3 6 1021.0 - 3.8
24/06:00pm 16.2 15.4 14.0 87 1.2 NW 11 13 6 7 1020.8 1020.8 0.0
24/05:30pm 16.0 15.1 13.8 87 1.2 NW 11 13 6 7 1020.7 - 0.0
24/05:00pm 16.1 14.4 13.6 85 1.4 NW 15 17 8 9 1020.6 1020.6 0.0
24/04:30pm 16.6 14.9 13.7 83 1.6 NNW 15 19 8 10 1020.4 - 0.0
24/04:00pm 16.9 16.2 12.0 73 2.7 N 7 11 4 6 1020.3 1020.3 0.0
24/03:30pm 16.8 16.5 11.5 71 2.9 NW 4 6 2 3 1020.4 - 0.0
24/03:00pm 17.2 16.3 11.2 68 3.2 N 7 9 4 5 1020.5 1020.5 0.0
24/02:30pm 17.5 16.5 10.4 63 3.8 NNW 6 7 3 4 1020.5 - 0.0
24/02:00pm 17.4 16.4 10.3 63 3.8 NW 6 7 3 4 1020.6 1020.6 0.0
24/01:30pm 17.4 16.7 10.1 62 3.9 NNW 4 6 2 3 1020.6 - 0.0
24/01:00pm 17.4 16.3 10.1 62 3.9 NW 6 7 3 4 1020.9 1020.9 0.0
24/12:30pm 17.9 16.5 9.5 58 4.4 WSW 7 13 4 7 1021.1 - 0.0
24/12:00pm 17.1 16.0 10.0 63 3.7 SSE 6 9 3 5 1021.7 1021.7 0.0
24/11:30am 16.6 15.3 9.3 62 3.8 SSE 6 9 3 5 1021.9 - 0.0
24/11:00am 16.3 14.6 9.7 65 3.4 SE 9 13 5 7 1022.1 1022.1 0.0
24/10:30am 15.5 14.6 10.5 72 2.6 SSE 6 7 3 4 1022.1 - 0.0
24/10:00am 14.4 14.0 12.3 87 1.1 SE 6 7 3 4 1022.2 1022.2 0.0
24/09:30am 13.5 13.5 13.5 100 0.0 ESE 6 7 3 4 1022.1 - 0.0
24/09:00am 12.9 12.5 12.9 100 0.0 ESE 7 9 4 5 1021.8 1021.8 9.0
24/08:30am 12.6 12.3 12.6 100 0.0 SE 6 9 3 5 1021.7 - 9.0
24/08:00am 12.0 11.5 12.0 100 0.0 SE 6 7 3 4 1021.2 1021.2 9.0
24/07:30am 11.7 11.1 11.7 100 0.0 ESE 6 7 3 4 1021.0 - 8.8
24/07:00am 12.5 12.9 12.5 100 0.0 SSE 2 4 1 2 1020.8 1020.8 8.8
24/06:30am 13.3 13.6 13.3 100 0.0 S 4 6 2 3 1020.5 - 8.8
24/06:00am 13.5 13.3 13.5 100 0.0 SSE 7 11 4 6 1020.2 1020.2 8.8
24/05:30am 13.9 13.4 13.9 100 0.0 SSE 9 13 5 7 1019.8 - 8.8
24/05:00am 14.3 13.6 14.3 100 0.0 S 11 15 6 8 1019.7 1019.7 8.8
24/04:30am 14.4 13.3 14.4 100 0.0 S 13 19 7 10 1019.6 - 8.6
24/04:00am 14.6 13.6 14.6 100 0.0 S 13 22 7 12 1019.4 1019.4 8.6
24/03:30am 14.7 14.5 14.7 100 0.0 S 9 13 5 7 1019.3 - 7.6
24/03:00am 15.2 14.4 15.0 99 0.1 S 13 22 7 12 1019.5 1019.5 7.2
24/02:30am 16.6 14.5 13.7 83 1.6 WSW 17 28 9 15 1019.2 - 4.0
24/02:00am 16.1 15.1 14.5 90 0.9 WSW 13 22 7 12 1019.1 1019.1 4.0
24/01:30am 15.6 15.0 14.5 93 0.6 W 11 17 6 9 1019.2 - 4.0
24/01:00am 15.2 13.8 14.6 96 0.3 W 15 20 8 11 1019.3 1019.3 4.0
24/12:30am 15.2 14.3 14.9 98 0.2 W 13 20 7 11 1019.5 - 4.0
24/12:00am 14.9 13.6 14.7 99 0.1 W 15 22 8 12 1019.9 1019.9 4.0
 
Date/Time
WST
Tmp

°C
App
Tmp
°C
Dew
Point
°C
Rel
Hum
%
Delta-T

°C
Wind Press
QNH
hPa
Press
MSL
hPa
Rain
since
9 am
mm
Dir
 
Spd
km/h
Gust
km/h
Spd
kts
Gust
kts
23/11:30pm 15.2 13.9 13.7 91 0.8 W 13 17 7 9 1020.0 - 3.8
23/11:00pm 16.1 13.8 11.9 76 2.3 W 15 20 8 11 1020.2 1020.2 3.2
23/10:30pm 15.8 13.5 11.8 77 2.2 W 15 22 8 12 1020.2 - 3.2
23/10:00pm 15.6 13.6 11.4 76 2.2 W 13 19 7 10 1020.4 1020.4 3.2
23/09:30pm 15.3 13.3 11.5 78 2.0 WSW 13 19 7 10 1020.4 - 3.2
23/09:00pm 15.0 13.2 11.0 77 2.1 WSW 11 15 6 8 1020.3 1020.3 3.2
23/08:30pm 14.8 13.3 10.6 76 2.2 WSW 9 15 5 8 1020.4 - 3.2
23/08:00pm 14.8 13.3 10.4 75 2.3 WSW 9 15 5 8 1020.4 1020.4 3.2
23/07:30pm 14.8 12.8 10.2 74 2.4 W 11 20 6 11 1020.5 - 3.2
23/07:00pm 14.6 12.7 10.6 77 2.1 WSW 11 20 6 11 1020.4 1020.4 3.2
23/06:30pm 14.5 12.1 10.1 75 2.3 W 13 20 7 11 1020.2 - 3.2
23/06:00pm 14.4 13.0 10.8 79 1.9 W 9 15 5 8 1020.1 1020.1 3.2
23/05:30pm 14.2 12.6 10.2 77 2.1 W 9 15 5 8 1019.8 - 3.2
23/05:00pm 14.4 12.7 11.2 81 1.7 W 11 17 6 9 1020.1 1020.1 3.2
23/04:30pm 14.0 12.9 11.9 87 1.1 W 9 15 5 8 1020.0 - 3.2
23/04:00pm 13.7 13.5 12.9 95 0.4 SW 6 11 3 6 1019.8 1019.8 3.2
23/03:30pm 13.9 13.2 13.3 96 0.3 W 9 15 5 8 1019.9 - 3.2
23/03:00pm 14.6 11.3 9.4 71 2.7 WNW 17 26 9 14 1019.9 1019.9 0.8
23/02:30pm 15.1 11.6 10.3 73 2.5 WNW 19 26 10 14 1019.9 - 0.8
23/02:00pm 14.9 14.8 12.2 84 1.5 W 4 7 2 4 1020.1 1020.1 0.8
23/01:30pm 14.0 13.0 11.0 82 1.6 WNW 7 15 4 8 1020.3 - 0.6
23/01:00pm 14.4 13.1 12.6 89 1.0 N 11 17 6 9 1020.7 1020.7 0.6
23/12:30pm 13.3 10.8 11.2 87 1.1 N 15 20 8 11 1020.8 - 0.4
23/12:00pm 13.7 11.0 10.3 80 1.8 N 15 19 8 10 1021.5 1021.5 0.0
23/11:30am 14.2 11.6 9.2 72 2.5 N 13 15 7 8 1021.9 - 0.0
23/11:00am 13.5 10.4 8.8 73 2.4 N 15 19 8 10 1022.3 1022.3 0.0
23/10:30am 13.2 9.6 8.5 73 2.3 N 17 22 9 12 1022.4 - 0.0
23/10:00am 12.7 9.9 8.6 76 2.0 N 13 17 7 9 1022.7 1022.7 0.0
23/09:30am 13.2 11.5 8.3 72 2.4 NNE 7 11 4 6 1022.9 - 0.0
23/09:00am 11.2 9.6 8.1 81 1.5 ENE 6 7 3 4 1022.4 1022.4 7.6
23/08:30am 10.8 8.4 8.7 87 1.0 NE 11 13 6 7 1022.3 - 7.6
23/08:00am 10.9 9.2 8.5 85 1.2 NE 7 13 4 7 1022.1 1022.1 7.6
23/07:30am 9.8 9.4 8.1 89 0.8 CALM 0 0 0 0 1022.2 - 7.6
23/07:00am 10.1 8.6 8.5 90 0.8 ENE 6 7 3 4 1021.7 1021.7 7.6
23/06:30am 10.1 8.5 8.0 87 1.0 SE 6 7 3 4 1021.5 - 7.6
23/06:00am 10.4 8.6 8.0 85 1.2 SSE 7 11 4 6 1021.2 1021.2 7.6
23/05:30am 10.5 9.4 8.4 87 1.0 SE 4 7 2 4 1021.2 - 7.6
23/05:00am 10.3 8.7 8.7 90 0.8 SSE 7 9 4 5 1021.1 1021.1 7.6
23/04:30am 10.1 8.7 9.0 93 0.5 SE 6 7 3 4 1021.0 - 7.6
23/04:00am 10.0 8.1 9.2 95 0.4 SE 9 13 5 7 1021.2 1021.2 7.6
23/03:30am 10.1 8.8 10.0 99 0.1 SE 7 11 4 6 1021.2 - 7.6
23/03:00am 10.2 8.9 10.1 99 0.1 SE 7 9 4 5 1021.2 1021.2 7.6
23/02:30am 10.1 8.8 10.0 99 0.1 SE 7 9 4 5 1021.4 - 7.6
23/02:00am 9.8 8.4 9.7 99 0.0 SE 7 11 4 6 1021.3 1021.3 7.6
23/01:30am 10.0 8.3 9.9 99 0.1 SE 9 11 5 6 1021.3 - 7.6
23/01:00am 10.5 8.5 10.2 98 0.2 SSE 11 19 6 10 1021.3 1021.3 7.6
23/12:30am 10.7 9.1 10.1 96 0.3 SE 9 13 5 7 1021.3 - 7.6
23/12:00am 11.0 10.1 9.4 90 0.8 S 4 9 2 5 1021.4 1021.4 7.4
 
Date/Time
WST
Tmp

°C
App
Tmp
°C
Dew
Point
°C
Rel
Hum
%
Delta-T

°C
Wind Press
QNH
hPa
Press
MSL
hPa
Rain
since
9 am
mm
Dir
 
Spd
km/h
Gust
km/h
Spd
kts
Gust
kts
22/11:30pm 11.1 9.2 9.2 88 0.9 SE 9 13 5 7 1021.4 - 7.2
22/11:00pm 11.1 9.5 8.7 85 1.2 SE 7 11 4 6 1021.5 1021.5 7.2
22/10:30pm 11.5 9.9 8.7 83 1.4 SE 7 9 4 5 1021.3 - 7.2
22/10:00pm 12.4 10.4 8.7 78 1.8 SE 9 13 5 7 1021.1 1021.1 7.2
22/09:30pm 12.4 10.9 8.5 77 1.9 SSW 6 7 3 4 1021.1 - 7.2
22/09:00pm 12.6 10.5 8.3 75 2.1 S 9 19 5 10 1020.9 1020.9 7.2
22/08:30pm 13.1 10.6 8.4 73 2.3 S 11 17 6 9 1020.8 - 7.2
22/08:00pm 13.1 10.2 8.0 71 2.5 SSW 13 20 7 11 1020.5 1020.5 7.2
22/07:30pm 13.0 9.7 8.1 72 2.4 SSW 15 22 8 12 1020.2 - 7.2
22/07:00pm 12.9 9.9 7.8 71 2.5 SSW 13 19 7 10 1019.8 1019.8 7.2
22/06:30pm 12.6 8.5 8.7 77 1.9 SSW 20 37 11 20 1019.5 - 7.2
22/06:00pm 13.3 10.6 8.8 74 2.3 SSW 13 19 7 10 1019.0 1019.0 7.2
22/05:30pm 13.2 10.1 8.9 75 2.2 SSW 15 22 8 12 1018.7 - 7.2
22/05:00pm 13.6 10.2 9.3 75 2.2 SSW 17 24 9 13 1018.4 1018.4 7.2

Latest Capital City Observations: Canberra | Sydney | Melbourne | Brisbane | Adelaide | Perth | Hobart | Darwin

Other Formats:

Comma delimited format used in spreadsheet applications
http://www.bom.gov.au/fwo/IDW60901/IDW60901.94605.axf

JavaScript Object Notation format (JSON) in row-major order
http://www.bom.gov.au/fwo/IDW60901/IDW60901.94605.json